createdAt,value
2023-03-27T00:00:50.905Z,987.6
2023-03-27T00:02:07.185Z,987.6
2023-03-27T00:03:23.000Z,987.6
2023-03-27T00:04:39.000Z,987.6
2023-03-27T00:05:56.000Z,987.6
2023-03-27T00:07:12.000Z,987.7
2023-03-27T00:08:28.000Z,987.7
2023-03-27T00:09:44.000Z,987.7
2023-03-27T00:11:01.250Z,987.9
2023-03-27T00:12:17.000Z,987.8
2023-03-27T00:13:33.000Z,987.9
2023-03-27T00:14:50.000Z,988
2023-03-27T00:16:06.000Z,987.9
2023-03-27T00:17:21.000Z,987.9
2023-03-27T00:18:38.000Z,988
2023-03-27T00:19:54.000Z,987.9
2023-03-27T00:21:10.000Z,987.9
2023-03-27T00:22:26.000Z,987.9
2023-03-27T00:23:43.200Z,987.9
2023-03-27T00:24:59.000Z,987.9
2023-03-27T00:26:15.000Z,987.9
2023-03-27T00:27:32.000Z,987.9
2023-03-27T00:28:48.000Z,987.9
2023-03-27T00:30:04.000Z,988
2023-03-27T00:31:20.965Z,988
2023-03-27T00:32:37.000Z,988
2023-03-27T00:33:52.574Z,988
2023-03-27T00:35:08.000Z,988
2023-03-27T00:36:25.000Z,988
2023-03-27T00:37:41.000Z,988
2023-03-27T00:38:57.000Z,988
2023-03-27T00:40:14.000Z,988
2023-03-27T00:41:30.000Z,988.1
2023-03-27T00:42:46.621Z,988.1
2023-03-27T00:44:02.928Z,988.1
2023-03-27T00:45:19.000Z,988.1
2023-03-27T00:46:35.000Z,988.2
2023-03-27T00:47:51.000Z,988.2
2023-03-27T00:49:08.000Z,988.2
2023-03-27T00:50:23.000Z,988.2
2023-03-27T00:51:39.000Z,988.2
2023-03-27T00:52:56.000Z,988.2
2023-03-27T00:54:12.000Z,988.2
2023-03-27T00:55:28.000Z,988.2
2023-03-27T00:56:44.874Z,988.2
2023-03-27T00:58:01.163Z,988.2
2023-03-27T00:59:17.000Z,988.2
2023-03-27T01:00:33.000Z,988.3
2023-03-27T01:01:50.000Z,988.3
2023-03-27T01:03:06.000Z,988.3
2023-03-27T01:04:22.647Z,988.3
2023-03-27T01:05:38.928Z,988.3
2023-03-27T01:06:54.235Z,988.3
2023-03-27T01:08:10.536Z,988.4
2023-03-27T01:09:26.000Z,988.4
2023-03-27T01:10:43.000Z,988.4
2023-03-27T01:11:59.000Z,988.4
2023-03-27T01:13:15.000Z,988.5
2023-03-27T01:14:32.000Z,988.5
2023-03-27T01:15:48.000Z,988.5
2023-03-27T01:17:04.587Z,988.5
2023-03-27T01:18:20.879Z,988.5
2023-03-27T01:19:37.174Z,988.5
2023-03-27T01:20:53.000Z,988.6
2023-03-27T01:22:09.000Z,988.6
2023-03-27T01:23:25.000Z,988.6
2023-03-27T01:24:41.000Z,988.6
2023-03-27T01:25:57.000Z,988.7
2023-03-27T01:27:13.956Z,988.6
2023-03-27T01:28:30.000Z,988.8
2023-03-27T01:29:46.547Z,988.7
2023-03-27T01:31:02.000Z,988.8
2023-03-27T01:32:19.000Z,988.8
2023-03-27T01:33:35.000Z,988.8
2023-03-27T01:34:51.724Z,988.8
2023-03-27T01:36:08.000Z,988.8
2023-03-27T01:37:24.316Z,988.8
2023-03-27T01:38:40.603Z,988.9
2023-03-27T01:39:55.928Z,988.9
2023-03-27T01:41:12.000Z,989
2023-03-27T01:42:28.000Z,988.9
2023-03-27T01:43:44.000Z,989.1
2023-03-27T01:45:01.102Z,989
2023-03-27T01:46:17.000Z,989.1
2023-03-27T01:47:33.000Z,989
2023-03-27T01:48:49.000Z,989.1
2023-03-27T01:50:06.261Z,989.1
2023-03-27T01:51:22.000Z,989.1
2023-03-27T01:52:38.000Z,989.2
2023-03-27T01:53:55.000Z,989.2
2023-03-27T01:55:11.000Z,989.2
2023-03-27T01:56:26.000Z,989.2
2023-03-27T01:57:43.055Z,989.3
2023-03-27T01:58:59.000Z,989.3
2023-03-27T02:00:15.628Z,989.3
2023-03-27T02:01:31.919Z,989.4
2023-03-27T02:02:48.000Z,989.4
2023-03-27T02:04:04.000Z,989.4
2023-03-27T02:05:20.799Z,989.5
2023-03-27T02:06:37.000Z,989.5
2023-03-27T02:07:53.000Z,989.5
2023-03-27T02:09:09.000Z,989.5
2023-03-27T02:10:25.982Z,989.5
2023-03-27T02:11:42.000Z,989.6
2023-03-27T02:12:58.571Z,989.6
2023-03-27T02:14:13.000Z,989.6
2023-03-27T02:15:30.000Z,989.6
2023-03-27T02:16:46.000Z,989.6
2023-03-27T02:18:02.000Z,989.6
2023-03-27T02:19:19.000Z,989.6
2023-03-27T02:20:35.353Z,989.7
2023-03-27T02:21:51.000Z,989.7
2023-03-27T02:23:07.931Z,989.7
2023-03-27T02:24:24.000Z,989.8
2023-03-27T02:25:40.000Z,989.8
2023-03-27T02:26:56.000Z,989.8
2023-03-27T02:28:13.000Z,989.9
2023-03-27T02:29:29.000Z,989.9
2023-03-27T02:30:44.715Z,989.9
2023-03-27T02:32:01.000Z,989.9
2023-03-27T02:33:17.000Z,990
2023-03-27T02:34:33.601Z,990
2023-03-27T02:35:49.890Z,990
2023-03-27T02:37:06.000Z,990.1
2023-03-27T02:38:22.000Z,990.1
2023-03-27T02:39:38.000Z,990.1
2023-03-27T02:40:55.000Z,990.2
2023-03-27T02:42:11.000Z,990.2
2023-03-27T02:43:27.000Z,990.2
2023-03-27T02:44:43.000Z,990.2
2023-03-27T02:46:00.234Z,990.3
2023-03-27T02:47:15.000Z,990.3
2023-03-27T02:48:31.858Z,990.3
2023-03-27T02:49:48.000Z,990.3
2023-03-27T02:51:04.431Z,990.3
2023-03-27T02:52:20.000Z,990.3
2023-03-27T02:53:37.027Z,990.4
2023-03-27T02:54:53.000Z,990.4
2023-03-27T02:56:09.000Z,990.5
2023-03-27T02:57:25.000Z,990.5
2023-03-27T02:58:42.190Z,990.5
2023-03-27T02:59:58.000Z,990.5
2023-03-27T03:01:14.000Z,990.6
2023-03-27T03:02:31.000Z,990.6
2023-03-27T03:03:46.000Z,990.6
2023-03-27T03:05:02.000Z,990.6
2023-03-27T03:06:18.973Z,990.7
2023-03-27T03:07:35.264Z,990.7
2023-03-27T03:08:51.000Z,990.8
2023-03-27T03:10:07.000Z,990.8
2023-03-27T03:11:24.150Z,990.8
2023-03-27T03:12:40.000Z,990.9
2023-03-27T03:13:56.731Z,990.9
2023-03-27T03:15:13.000Z,990.9
2023-03-27T03:16:29.000Z,990.9
2023-03-27T03:17:45.000Z,991
2023-03-27T03:19:01.000Z,991
2023-03-27T03:20:17.000Z,991
2023-03-27T03:21:33.514Z,991
2023-03-27T03:22:49.000Z,991.1
2023-03-27T03:24:06.105Z,991
2023-03-27T03:25:22.000Z,991.2
2023-03-27T03:26:38.000Z,991.1
2023-03-27T03:27:55.000Z,991.2
2023-03-27T03:29:11.000Z,991.3
2023-03-27T03:30:27.584Z,991.3
2023-03-27T03:31:43.872Z,991.3
2023-03-27T03:33:00.168Z,991.3
2023-03-27T03:34:16.000Z,991.3
2023-03-27T03:35:32.000Z,991.3
2023-03-27T03:36:48.000Z,991.3
2023-03-27T03:38:04.000Z,991.4
2023-03-27T03:39:20.000Z,991.4
2023-03-27T03:40:36.000Z,991.4
2023-03-27T03:41:53.000Z,991.4
2023-03-27T03:43:09.526Z,991.4
2023-03-27T03:44:25.836Z,991.4
2023-03-27T03:45:42.000Z,991.5
2023-03-27T03:46:58.000Z,991.5
2023-03-27T03:48:14.000Z,991.5
2023-03-27T03:49:31.000Z,991.6
2023-03-27T03:50:47.000Z,991.6
2023-03-27T03:52:03.580Z,991.6
2023-03-27T03:53:18.000Z,991.6
2023-03-27T03:54:35.187Z,991.6
2023-03-27T03:55:51.483Z,991.7
2023-03-27T03:57:07.000Z,991.7
2023-03-27T03:58:24.000Z,991.7
2023-03-27T03:59:40.367Z,991.8
2023-03-27T04:00:56.000Z,991.8
2023-03-27T04:02:12.000Z,991.8
2023-03-27T04:03:29.000Z,991.8
2023-03-27T04:04:45.000Z,991.8
2023-03-27T04:06:01.000Z,991.9
2023-03-27T04:07:18.000Z,991.9
2023-03-27T04:08:34.000Z,991.9
2023-03-27T04:09:49.000Z,992
2023-03-27T04:11:06.029Z,992
2023-03-27T04:12:22.000Z,992.1
2023-03-27T04:13:38.000Z,992.1
2023-03-27T04:14:54.911Z,992.1
2023-03-27T04:16:10.000Z,992.1
2023-03-27T04:17:26.529Z,992.1
2023-03-27T04:18:42.000Z,992.1
2023-03-27T04:19:59.000Z,992.2
2023-03-27T04:21:15.000Z,992.2
2023-03-27T04:22:31.696Z,992.2
2023-03-27T04:23:48.000Z,992.3
2023-03-27T04:25:04.291Z,992.3
2023-03-27T04:26:20.000Z,992.3
2023-03-27T04:27:36.000Z,992.4
2023-03-27T04:28:53.000Z,992.4
2023-03-27T04:30:09.000Z,992.4
2023-03-27T04:31:25.000Z,992.4
2023-03-27T04:32:40.000Z,992.5
2023-03-27T04:33:57.000Z,992.6
2023-03-27T04:35:13.000Z,992.6
2023-03-27T04:36:29.000Z,992.6
2023-03-27T04:37:45.821Z,992.6
2023-03-27T04:39:02.048Z,992.7
2023-03-27T04:40:18.299Z,992.7
2023-03-27T04:41:34.000Z,992.8
2023-03-27T04:42:50.000Z,992.8
2023-03-27T04:44:07.000Z,992.8
2023-03-27T04:45:23.000Z,992.8
2023-03-27T04:46:39.000Z,992.9
2023-03-27T04:47:55.731Z,992.9
2023-03-27T04:49:10.991Z,993
2023-03-27T04:50:27.000Z,992.9
2023-03-27T04:51:43.000Z,993
2023-03-27T04:52:59.710Z,993
2023-03-27T04:54:15.952Z,993
2023-03-27T04:55:32.000Z,993
2023-03-27T04:56:48.000Z,993.1
2023-03-27T04:58:04.682Z,993
2023-03-27T04:59:20.919Z,993.1
2023-03-27T05:00:37.000Z,993.1
2023-03-27T05:01:53.383Z,993.2
2023-03-27T05:03:09.640Z,993.2
2023-03-27T05:04:25.000Z,993.2
2023-03-27T05:05:42.000Z,993.2
2023-03-27T05:06:57.000Z,993.3
2023-03-27T05:08:13.000Z,993.3
2023-03-27T05:09:29.000Z,993.4
2023-03-27T05:10:46.087Z,993.5
2023-03-27T05:12:02.000Z,993.5
2023-03-27T05:13:18.000Z,993.5
2023-03-27T05:14:34.000Z,993.5
2023-03-27T05:15:51.000Z,993.5
2023-03-27T05:17:07.000Z,993.6
2023-03-27T05:18:23.000Z,993.6
2023-03-27T05:19:39.000Z,993.7
2023-03-27T05:20:56.004Z,993.7
2023-03-27T05:22:12.252Z,993.7
2023-03-27T05:23:28.000Z,993.7
2023-03-27T05:24:43.000Z,993.8
2023-03-27T05:25:59.982Z,993.8
2023-03-27T05:27:16.000Z,993.9
2023-03-27T05:28:32.000Z,993.9
2023-03-27T05:29:48.000Z,993.9
2023-03-27T05:31:04.000Z,993.9
2023-03-27T05:32:21.000Z,993.9
2023-03-27T05:33:37.436Z,994
2023-03-27T05:34:53.000Z,993.9
2023-03-27T05:36:09.000Z,994
2023-03-27T05:37:26.000Z,994
2023-03-27T05:38:42.000Z,994
2023-03-27T05:39:58.000Z,994.1
2023-03-27T05:41:14.000Z,994.2
2023-03-27T05:42:30.000Z,994.1
2023-03-27T05:43:46.000Z,994.2
2023-03-27T05:45:02.605Z,994.2
2023-03-27T05:46:18.000Z,994.2
2023-03-27T05:47:35.097Z,994.2
2023-03-27T05:48:51.000Z,994.2
2023-03-27T05:50:07.000Z,994.2
2023-03-27T05:51:23.000Z,994.2
2023-03-27T05:52:40.000Z,994.3
2023-03-27T05:53:56.288Z,994.3
2023-03-27T05:55:12.000Z,994.3
2023-03-27T05:56:28.767Z,994.4
2023-03-27T05:57:45.000Z,994.3
2023-03-27T05:59:01.000Z,994.5
2023-03-27T06:00:16.000Z,994.5
2023-03-27T06:01:32.742Z,994.5
2023-03-27T06:02:49.000Z,994.4
2023-03-27T06:04:05.232Z,994.6
2023-03-27T06:05:21.471Z,994.5
2023-03-27T06:06:37.706Z,994.6
2023-03-27T06:07:53.000Z,994.6
2023-03-27T06:09:10.000Z,994.6
2023-03-27T06:10:26.000Z,994.6
2023-03-27T06:11:42.674Z,994.6
2023-03-27T06:12:58.000Z,994.6
2023-03-27T06:14:15.000Z,994.7
2023-03-27T06:15:31.387Z,994.7
2023-03-27T06:16:47.621Z,994.7
2023-03-27T06:18:02.878Z,994.7
2023-03-27T06:19:19.000Z,994.7
2023-03-27T06:20:35.000Z,994.8
2023-03-27T06:21:51.000Z,994.8
2023-03-27T06:23:07.000Z,994.8
2023-03-27T06:24:24.000Z,994.9
2023-03-27T06:25:40.000Z,994.8
2023-03-27T06:26:56.000Z,994.9
2023-03-27T06:28:12.801Z,994.9
2023-03-27T06:29:29.049Z,995
2023-03-27T06:30:45.000Z,995
2023-03-27T06:32:01.000Z,995
2023-03-27T06:33:17.000Z,995
2023-03-27T06:34:33.010Z,995
2023-03-27T06:35:49.000Z,995.1
2023-03-27T06:37:05.000Z,995.2
2023-03-27T06:38:21.000Z,995.1
2023-03-27T06:39:37.988Z,995.1
2023-03-27T06:40:54.000Z,995.1
2023-03-27T06:42:10.456Z,995.2
2023-03-27T06:43:26.000Z,995.2
2023-03-27T06:44:42.000Z,995.1
2023-03-27T06:45:59.000Z,995.2
2023-03-27T06:47:15.000Z,995.2
2023-03-27T06:48:31.000Z,995.2
2023-03-27T06:49:47.000Z,995.2
2023-03-27T06:51:03.000Z,995.3
2023-03-27T06:52:19.000Z,995.3
2023-03-27T06:53:35.638Z,995.2
2023-03-27T06:54:51.000Z,995.3
2023-03-27T06:56:08.000Z,995.3
2023-03-27T06:57:24.343Z,995.4
2023-03-27T06:58:40.000Z,995.5
2023-03-27T06:59:56.000Z,995.4
2023-03-27T07:01:13.000Z,995.4
2023-03-27T07:02:29.000Z,995.5
2023-03-27T07:03:45.000Z,995.4
2023-03-27T07:05:01.791Z,995.4
2023-03-27T07:06:18.037Z,995.4
2023-03-27T07:07:33.000Z,995.4
2023-03-27T07:08:49.000Z,995.4
2023-03-27T07:10:05.000Z,995.4
2023-03-27T07:11:22.000Z,995.5
2023-03-27T07:12:38.000Z,995.5
2023-03-27T07:13:54.000Z,995.5
2023-03-27T07:15:10.000Z,995.6
2023-03-27T07:16:26.992Z,995.6
2023-03-27T07:17:43.207Z,995.6
2023-03-27T07:18:59.000Z,995.6
2023-03-27T07:20:15.000Z,995.5
2023-03-27T07:21:31.000Z,995.5
2023-03-27T07:22:48.000Z,995.5
2023-03-27T07:24:03.000Z,995.6
2023-03-27T07:25:19.000Z,995.6
2023-03-27T07:26:35.000Z,995.6
2023-03-27T07:27:52.000Z,995.5
2023-03-27T07:29:08.000Z,995.7
2023-03-27T07:30:24.627Z,995.6
2023-03-27T07:31:40.000Z,995.7
2023-03-27T07:32:57.000Z,995.6
2023-03-27T07:34:13.000Z,995.8
2023-03-27T07:35:29.000Z,995.6
2023-03-27T07:36:45.000Z,995.7
2023-03-27T07:38:02.000Z,995.7
2023-03-27T07:39:18.000Z,995.7
2023-03-27T07:40:33.000Z,995.8
2023-03-27T07:41:49.000Z,995.7
2023-03-27T07:43:06.040Z,995.7
2023-03-27T07:44:22.000Z,995.8
2023-03-27T07:45:38.000Z,995.8
2023-03-27T07:46:54.000Z,995.9
2023-03-27T07:48:11.000Z,995.7
2023-03-27T07:49:27.000Z,995.9
2023-03-27T07:50:43.000Z,995.8
2023-03-27T07:51:59.000Z,995.8
2023-03-27T07:53:15.970Z,995.9
2023-03-27T07:54:32.000Z,995.9
2023-03-27T07:55:48.000Z,995.9
2023-03-27T07:57:03.000Z,995.9
2023-03-27T07:58:19.932Z,995.9
2023-03-27T07:59:36.000Z,995.9
2023-03-27T08:00:52.000Z,995.9
2023-03-27T08:02:08.000Z,996
2023-03-27T08:03:24.891Z,996
2023-03-27T08:04:41.000Z,996.1
2023-03-27T08:05:57.000Z,996
2023-03-27T08:07:13.000Z,996
2023-03-27T08:08:29.000Z,996
2023-03-27T08:09:46.000Z,996
2023-03-27T08:11:02.000Z,996.1
2023-03-27T08:12:18.000Z,996
2023-03-27T08:13:34.807Z,996.1
2023-03-27T08:14:51.000Z,996.2
2023-03-27T08:16:06.312Z,996.1
2023-03-27T08:17:22.000Z,996
2023-03-27T08:18:38.000Z,996.1
2023-03-27T08:19:55.000Z,996.2
2023-03-27T08:21:11.000Z,996.1
2023-03-27T08:22:27.000Z,996.2
2023-03-27T08:23:43.000Z,996.1
2023-03-27T08:24:59.996Z,996.1
2023-03-27T08:26:16.232Z,996.2
2023-03-27T08:27:32.000Z,996.4
2023-03-27T08:28:48.000Z,996.2
2023-03-27T08:30:04.000Z,996.2
2023-03-27T08:31:20.000Z,996.3
2023-03-27T08:32:36.000Z,996.3
2023-03-27T08:33:52.686Z,996.2
2023-03-27T08:35:08.000Z,996.2
2023-03-27T08:36:25.178Z,996.3
2023-03-27T08:37:41.000Z,996.3
2023-03-27T08:38:57.000Z,996.3
2023-03-27T08:40:13.000Z,996.3
2023-03-27T08:41:30.000Z,996.3
2023-03-27T08:42:46.000Z,996.4
2023-03-27T08:44:02.000Z,996.3
2023-03-27T08:45:18.000Z,996.3
2023-03-27T08:46:35.000Z,996.3
2023-03-27T08:47:50.000Z,996.4
2023-03-27T08:49:06.000Z,996.5
2023-03-27T08:50:22.000Z,996.4
2023-03-27T08:51:39.065Z,996.4
2023-03-27T08:52:55.000Z,996.4
2023-03-27T08:54:11.000Z,996.3
2023-03-27T08:55:27.000Z,996.2
2023-03-27T08:56:44.000Z,996.3
2023-03-27T08:58:00.000Z,996.3
2023-03-27T08:59:16.000Z,996.3
2023-03-27T09:00:32.000Z,996.3
2023-03-27T09:01:49.000Z,996.3
2023-03-27T09:03:05.000Z,996.3
2023-03-27T09:04:20.000Z,996.3
2023-03-27T09:05:36.736Z,996.3
2023-03-27T09:06:52.964Z,996.4
2023-03-27T09:08:09.000Z,996.3
2023-03-27T09:09:25.000Z,996.3
2023-03-27T09:10:41.000Z,996.3
2023-03-27T09:11:57.000Z,996.2
2023-03-27T09:13:14.000Z,996.3
2023-03-27T09:14:30.403Z,996.3
2023-03-27T09:15:46.000Z,996.3
2023-03-27T09:17:02.000Z,996.4
2023-03-27T09:18:19.000Z,996.5
2023-03-27T09:19:35.000Z,996.5
2023-03-27T09:20:50.000Z,996.6
2023-03-27T09:22:06.000Z,996.5
2023-03-27T09:23:23.000Z,996.5
2023-03-27T09:24:39.000Z,996.4
2023-03-27T09:25:55.572Z,996.5
2023-03-27T09:27:11.828Z,996.7
2023-03-27T09:28:28.000Z,996.4
2023-03-27T09:29:44.000Z,996.5
2023-03-27T09:31:00.000Z,996.6
2023-03-27T09:32:16.000Z,996.5
2023-03-27T09:33:33.000Z,996.5
2023-03-27T09:34:49.000Z,996.6
2023-03-27T09:36:05.000Z,996.6
2023-03-27T09:37:20.754Z,996.6
2023-03-27T09:38:37.000Z,996.5
2023-03-27T09:39:53.227Z,996.5
2023-03-27T09:41:09.000Z,996.5
2023-03-27T09:42:25.000Z,996.5
2023-03-27T09:43:41.000Z,996.7
2023-03-27T09:44:58.000Z,996.6
2023-03-27T09:46:14.000Z,996.6
2023-03-27T09:47:30.000Z,996.7
2023-03-27T09:48:46.000Z,996.6
2023-03-27T09:50:03.144Z,996.7
2023-03-27T09:51:19.000Z,996.6
2023-03-27T09:52:35.000Z,996.8
2023-03-27T09:53:50.000Z,996.8
2023-03-27T09:55:07.000Z,996.7
2023-03-27T09:56:23.000Z,996.7
2023-03-27T09:57:39.000Z,996.8
2023-03-27T09:58:55.842Z,996.8
2023-03-27T10:00:12.090Z,996.8
2023-03-27T10:01:28.328Z,996.8
2023-03-27T10:02:44.000Z,996.6
2023-03-27T10:04:00.000Z,996.8
2023-03-27T10:05:17.052Z,996.8
2023-03-27T10:06:33.000Z,996.9
2023-03-27T10:07:49.000Z,996.9
2023-03-27T10:09:05.000Z,997
2023-03-27T10:10:21.029Z,996.7
2023-03-27T10:11:37.255Z,996.7
2023-03-27T10:12:53.500Z,996.8
2023-03-27T10:14:09.000Z,996.9
2023-03-27T10:15:25.979Z,997.1
2023-03-27T10:16:42.000Z,996.9
2023-03-27T10:17:58.000Z,996.9
2023-03-27T10:19:14.000Z,996.8
2023-03-27T10:20:30.000Z,997
2023-03-27T10:21:47.000Z,997
2023-03-27T10:23:03.419Z,996.9
2023-03-27T10:24:19.000Z,996.9
2023-03-27T10:25:35.000Z,997.1
2023-03-27T10:26:51.000Z,997.2
2023-03-27T10:28:07.396Z,997.1
2023-03-27T10:29:23.000Z,997.1
2023-03-27T10:30:39.000Z,997.1
2023-03-27T10:31:56.000Z,997.1
2023-03-27T10:33:12.000Z,997
2023-03-27T10:34:28.000Z,997
2023-03-27T10:35:44.827Z,997.2
2023-03-27T10:37:01.000Z,997.1
2023-03-27T10:38:17.000Z,997
2023-03-27T10:39:33.000Z,997
2023-03-27T10:40:49.000Z,997.1
2023-03-27T10:42:06.000Z,997
2023-03-27T10:43:21.000Z,996.9
2023-03-27T10:44:37.000Z,997.1
2023-03-27T10:45:53.763Z,997
2023-03-27T10:47:10.011Z,997.2
2023-03-27T10:48:26.000Z,997
2023-03-27T10:49:42.000Z,996.9
2023-03-27T10:50:58.000Z,997
2023-03-27T10:52:14.000Z,997.1
2023-03-27T10:53:31.193Z,997.1
2023-03-27T10:54:47.000Z,997
2023-03-27T10:56:03.682Z,997.1
2023-03-27T10:57:19.000Z,997.1
2023-03-27T10:58:36.164Z,997.2
2023-03-27T10:59:51.437Z,997.2
2023-03-27T11:01:07.000Z,997.3
2023-03-27T11:02:23.000Z,997.3
2023-03-27T11:03:40.000Z,997.3
2023-03-27T11:04:56.000Z,997.3
2023-03-27T11:06:12.000Z,997.4
2023-03-27T11:07:28.000Z,997.3
2023-03-27T11:08:45.094Z,997.3
2023-03-27T11:10:01.000Z,997.3
2023-03-27T11:11:17.000Z,997.2
2023-03-27T11:12:33.000Z,997.2
2023-03-27T11:13:50.000Z,997.3
2023-03-27T11:15:06.000Z,997.2
2023-03-27T11:16:21.000Z,997.3
2023-03-27T11:17:37.000Z,997.2
2023-03-27T11:18:54.000Z,997.2
2023-03-27T11:20:10.000Z,997.1
2023-03-27T11:21:26.000Z,997.1
2023-03-27T11:22:42.000Z,997.1
2023-03-27T11:23:59.000Z,997.1
2023-03-27T11:25:15.000Z,997.3
2023-03-27T11:26:31.000Z,997.3
2023-03-27T11:27:47.000Z,997.2
2023-03-27T11:29:03.000Z,997.2
2023-03-27T11:30:20.000Z,997.1
2023-03-27T11:31:36.433Z,997.1
2023-03-27T11:32:51.000Z,997.3
2023-03-27T11:34:07.000Z,997.6
2023-03-27T11:35:24.000Z,997.3
2023-03-27T11:36:40.000Z,997.2
2023-03-27T11:37:56.000Z,997.3
2023-03-27T11:39:12.000Z,997.4
2023-03-27T11:40:29.000Z,997.5
2023-03-27T11:41:45.000Z,997.5
2023-03-27T11:43:01.603Z,997.3
2023-03-27T11:44:17.852Z,997.4
2023-03-27T11:45:34.000Z,997.5
2023-03-27T11:46:50.000Z,997.5
2023-03-27T11:48:06.000Z,997.5
2023-03-27T11:49:21.000Z,997.4
2023-03-27T11:50:38.000Z,997.5
2023-03-27T11:51:54.000Z,997.4
2023-03-27T11:53:10.000Z,997.2
2023-03-27T11:54:26.784Z,997.4
2023-03-27T11:55:43.021Z,997.4
2023-03-27T11:56:59.000Z,997.3
2023-03-27T11:58:15.000Z,997.3
2023-03-27T11:59:31.000Z,997.2
2023-03-27T12:00:48.000Z,997.3
2023-03-27T12:02:04.000Z,997.3
2023-03-27T12:03:20.000Z,997.3
2023-03-27T12:04:36.681Z,997.4
2023-03-27T12:05:51.000Z,997.4
2023-03-27T12:07:08.182Z,997.3
2023-03-27T12:08:24.000Z,997.5
2023-03-27T12:09:40.000Z,997.6
2023-03-27T12:10:56.000Z,997.4
2023-03-27T12:12:13.000Z,997.5
2023-03-27T12:13:29.000Z,997.4
2023-03-27T12:14:45.645Z,997.4
2023-03-27T12:16:01.000Z,997.3
2023-03-27T12:17:18.103Z,997.2
2023-03-27T12:18:34.000Z,997.3
2023-03-27T12:19:50.000Z,997.3
2023-03-27T12:21:06.000Z,997.3
2023-03-27T12:22:22.081Z,997.3
2023-03-27T12:23:38.000Z,997.1
2023-03-27T12:24:54.000Z,997.3
2023-03-27T12:26:10.000Z,997.3
2023-03-27T12:27:27.054Z,997.4
2023-03-27T12:28:43.000Z,997.3
2023-03-27T12:29:59.524Z,997.3
2023-03-27T12:31:15.000Z,997.3
2023-03-27T12:32:31.996Z,997.6
2023-03-27T12:33:48.000Z,997.3
2023-03-27T12:35:04.000Z,997.3
2023-03-27T12:36:20.000Z,997.3
2023-03-27T12:37:36.956Z,997.3
2023-03-27T12:38:52.000Z,997.4
2023-03-27T12:40:08.443Z,997.3
2023-03-27T12:41:24.000Z,997.3
2023-03-27T12:42:40.000Z,997.4
2023-03-27T12:43:57.000Z,997.4
2023-03-27T12:45:13.407Z,997.3
2023-03-27T12:46:28.000Z,997.4
2023-03-27T12:47:44.908Z,997.3
2023-03-27T12:49:01.000Z,997.3
2023-03-27T12:50:17.389Z,997.3
2023-03-27T12:51:33.000Z,997.4
2023-03-27T12:52:49.000Z,997.5
2023-03-27T12:54:06.000Z,997.4
2023-03-27T12:55:22.000Z,997.3
2023-03-27T12:56:38.000Z,997.2
2023-03-27T12:57:54.000Z,997.4
2023-03-27T12:59:11.000Z,997.3
2023-03-27T13:00:27.000Z,997.6
2023-03-27T13:01:43.000Z,997.3
2023-03-27T13:02:58.800Z,997.6
2023-03-27T13:04:15.000Z,997.4
2023-03-27T13:05:31.000Z,997.6
2023-03-27T13:06:47.000Z,997.4
2023-03-27T13:08:03.000Z,997.7
2023-03-27T13:09:20.000Z,997.6
2023-03-27T13:10:36.244Z,997.6
2023-03-27T13:11:52.000Z,997.4
2023-03-27T13:13:08.000Z,997.4
2023-03-27T13:14:24.000Z,997.5
2023-03-27T13:15:41.192Z,997.4
2023-03-27T13:16:57.000Z,997.5
2023-03-27T13:18:13.663Z,997.6
2023-03-27T13:19:29.000Z,997.7
2023-03-27T13:20:45.000Z,998
2023-03-27T13:22:01.000Z,998.3
2023-03-27T13:23:17.000Z,998.2
2023-03-27T13:24:33.000Z,998
2023-03-27T13:25:50.128Z,998
2023-03-27T13:27:06.381Z,998.1
2023-03-27T13:28:22.000Z,998.5
2023-03-27T13:29:38.000Z,998.9
2023-03-27T13:30:55.000Z,998.7
2023-03-27T13:32:11.000Z,998.7
2023-03-27T13:33:27.000Z,998.8
2023-03-27T13:34:43.000Z,999.1
2023-03-27T13:36:00.049Z,999.2
2023-03-27T13:37:15.000Z,999.3
2023-03-27T13:38:31.000Z,999
2023-03-27T13:39:47.000Z,999.2
2023-03-27T13:41:04.032Z,999.5
2023-03-27T13:42:20.000Z,999.1
2023-03-27T13:43:36.000Z,998.9
2023-03-27T13:44:52.000Z,998.9
2023-03-27T13:46:08.985Z,999
2023-03-27T13:47:25.208Z,998.9
2023-03-27T13:48:41.449Z,998.8
2023-03-27T13:49:57.000Z,998.9
2023-03-27T13:51:13.000Z,998.7
2023-03-27T13:52:30.000Z,998.7
2023-03-27T13:53:45.000Z,998.7
2023-03-27T13:55:01.000Z,998.8
2023-03-27T13:56:17.000Z,998.8
2023-03-27T13:57:34.000Z,998.8
2023-03-27T13:58:50.000Z,998.6
2023-03-27T14:00:06.634Z,998.5
2023-03-27T14:01:22.875Z,998.5
2023-03-27T14:02:39.000Z,998.7
2023-03-27T14:03:55.000Z,998.5
2023-03-27T14:05:11.000Z,998.5
2023-03-27T14:06:27.000Z,998.6
2023-03-27T14:07:44.000Z,998.4
2023-03-27T14:09:00.314Z,998.5
2023-03-27T14:10:15.000Z,998.5
2023-03-27T14:11:31.805Z,998.6
2023-03-27T14:12:48.000Z,998.4
2023-03-27T14:14:04.000Z,998.4
2023-03-27T14:15:20.000Z,998.5
2023-03-27T14:16:36.000Z,998.5
2023-03-27T14:17:53.000Z,998.5
2023-03-27T14:19:09.000Z,998.4
2023-03-27T14:20:25.000Z,998.5
2023-03-27T14:21:41.718Z,998.5
2023-03-27T14:22:58.000Z,998.5
2023-03-27T14:24:14.000Z,998.5
2023-03-27T14:25:30.000Z,998.6
2023-03-27T14:26:45.000Z,998.6
2023-03-27T14:28:01.000Z,998.6
2023-03-27T14:29:18.000Z,998.6
2023-03-27T14:30:34.000Z,998.5
2023-03-27T14:31:50.000Z,998.8
2023-03-27T14:33:06.890Z,998.6
2023-03-27T14:34:23.146Z,998.7
2023-03-27T14:35:39.000Z,998.6
2023-03-27T14:36:55.617Z,998.7
2023-03-27T14:38:11.000Z,998.6
2023-03-27T14:39:28.000Z,998.7
2023-03-27T14:40:44.000Z,998.7
2023-03-27T14:42:00.000Z,998.7
2023-03-27T14:43:15.000Z,998.6
2023-03-27T14:44:32.073Z,998.7
2023-03-27T14:45:48.000Z,998.5
2023-03-27T14:47:04.564Z,998.6
2023-03-27T14:48:20.000Z,998.6
2023-03-27T14:49:37.000Z,998.5
2023-03-27T14:50:53.000Z,998.7
2023-03-27T14:52:09.000Z,998.5
2023-03-27T14:53:25.000Z,998.5
2023-03-27T14:54:42.000Z,998.6
2023-03-27T14:55:58.224Z,998.6
2023-03-27T14:57:14.468Z,998.6
2023-03-27T14:58:30.000Z,998.8
2023-03-27T14:59:46.000Z,998.7
2023-03-27T15:01:02.000Z,998.9
2023-03-27T15:02:18.000Z,998.6
2023-03-27T15:03:34.000Z,998.8
2023-03-27T15:04:50.000Z,998.8
2023-03-27T15:06:07.000Z,998.9
2023-03-27T15:07:23.410Z,998.7
2023-03-27T15:08:39.000Z,998.8
2023-03-27T15:09:55.873Z,998.8
2023-03-27T15:11:12.000Z,998.9
2023-03-27T15:12:28.000Z,998.7
2023-03-27T15:13:44.611Z,999.1
2023-03-27T15:15:00.000Z,998.9
2023-03-27T15:16:16.000Z,998.9
2023-03-27T15:17:32.000Z,998.8
2023-03-27T15:18:48.000Z,998.9
2023-03-27T15:20:04.825Z,998.7
2023-03-27T15:21:21.080Z,998.8
2023-03-27T15:22:37.293Z,998.8
2023-03-27T15:23:53.000Z,998.8
2023-03-27T15:25:09.776Z,998.8
2023-03-27T15:26:26.000Z,998.8
2023-03-27T15:27:42.000Z,998.8
2023-03-27T15:28:58.000Z,998.8
2023-03-27T15:30:14.740Z,998.8
2023-03-27T15:31:31.000Z,998.8
2023-03-27T15:32:46.251Z,998.8
2023-03-27T15:34:02.000Z,998.9
2023-03-27T15:35:18.000Z,999
2023-03-27T15:36:34.000Z,998.9
2023-03-27T15:37:51.000Z,998.9
2023-03-27T15:39:07.000Z,998.9
2023-03-27T15:40:23.000Z,999
2023-03-27T15:41:39.000Z,999.1
2023-03-27T15:42:56.000Z,999.2
2023-03-27T15:44:12.000Z,999.1
2023-03-27T15:45:28.000Z,999.2
2023-03-27T15:46:44.000Z,999.3
2023-03-27T15:48:01.000Z,999.3
2023-03-27T15:49:16.000Z,999.2
2023-03-27T15:50:32.000Z,999.3
2023-03-27T15:51:48.000Z,999.4
2023-03-27T15:53:05.000Z,999.4
2023-03-27T15:54:21.000Z,999.3
2023-03-27T15:55:37.570Z,999.4
2023-03-27T15:56:53.000Z,999.3
2023-03-27T15:58:10.000Z,999.4
2023-03-27T15:59:26.000Z,999.3
2023-03-27T16:00:42.544Z,999.3
2023-03-27T16:01:58.000Z,999.4
2023-03-27T16:03:15.010Z,999.5
2023-03-27T16:04:31.000Z,999.4
2023-03-27T16:05:46.000Z,999.3
2023-03-27T16:07:02.000Z,999.3
2023-03-27T16:08:18.976Z,999.3
2023-03-27T16:09:35.000Z,999.4
2023-03-27T16:10:51.000Z,999.7
2023-03-27T16:12:07.000Z,999.6
2023-03-27T16:13:23.000Z,999.5
2023-03-27T16:14:40.000Z,999.7
2023-03-27T16:15:56.000Z,999.5
2023-03-27T16:17:12.000Z,999.5
2023-03-27T16:18:28.909Z,999.6
2023-03-27T16:19:45.000Z,999.6
2023-03-27T16:21:01.000Z,999.7
2023-03-27T16:22:16.000Z,999.7
2023-03-27T16:23:32.000Z,999.8
2023-03-27T16:24:49.000Z,999.7
2023-03-27T16:26:05.000Z,999.6